Time;durP1;ratioP1;P1;durP2;ratioP2;P2;SDS_P1;SDS_P2;PMS_P1;PMS_P2;Temp;Humidity;BMP_temperature;BMP_pressure;BME280_temperature;BME280_humidity;BME280_pressure;Samples;Min_cycle;Max_cycle;Signal;HPM_P1;HPM_P2
2023/02/04 00:01:36;;;;;;;4.17;1.20;;;5.00;99.90;;;;;;5006744;28;20207;-77
2023/02/04 00:04:01;;;;;;;3.47;1.53;;;4.80;99.90;;;;;;5007060;28;20190;-77
2023/02/04 00:06:27;;;;;;;3.10;1.30;;;4.50;99.90;;;;;;5006581;28;20198;-77
2023/02/04 00:08:52;;;;;;;2.17;0.90;;;4.30;1.00;;;;;;5006139;28;20242;-77
2023/02/04 00:11:18;;;;;;;1.77;0.90;;;4.10;99.90;;;;;;5006762;28;20221;-77
2023/02/04 00:13:43;;;;;;;2.73;1.03;;;3.90;99.90;;;;;;5006157;28;20668;-77
2023/02/04 00:16:09;;;;;;;1.33;1.10;;;3.80;99.90;;;;;;5006898;28;20670;-77
2023/02/04 00:18:35;;;;;;;2.13;0.87;;;3.80;99.90;;;;;;5005595;28;20669;-77
2023/02/04 00:21:00;;;;;;;2.00;0.87;;;3.70;99.90;;;;;;5007882;28;20215;-77
2023/02/04 00:23:26;;;;;;;2.30;0.80;;;3.80;99.90;;;;;;5007236;28;20322;-76
2023/02/04 00:25:51;;;;;;;0.70;0.60;;;3.70;99.90;;;;;;5006098;28;20183;-78
2023/02/04 00:28:17;;;;;;;1.03;0.70;;;3.60;99.90;;;;;;5005386;28;20188;-77
2023/02/04 00:30:43;;;;;;;3.97;0.80;;;3.50;99.90;;;;;;5006413;28;20203;-77
2023/02/04 00:33:08;;;;;;;2.40;0.90;;;3.50;99.90;;;;;;5007243;28;20184;-77
2023/02/04 00:35:36;;;;;;;1.07;0.80;;;3.50;99.90;;;;;;5007193;28;20188;-76
2023/02/04 00:38:02;;;;;;;2.77;1.00;;;3.50;99.90;;;;;;5007403;28;20187;-76
2023/02/04 00:40:27;;;;;;;1.33;0.90;;;3.50;99.90;;;;;;5007535;28;20210;-78
2023/02/04 00:42:53;;;;;;;2.17;1.20;;;3.60;99.90;;;;;;5006872;28;20268;-77
2023/02/04 00:45:19;;;;;;;1.07;0.90;;;3.60;99.90;;;;;;5006855;28;20179;-77
2023/02/04 00:47:44;;;;;;;3.80;1.17;;;3.50;99.90;;;;;;5006211;28;20184;-77
2023/02/04 00:50:10;;;;;;;1.77;1.17;;;3.50;99.90;;;;;;5007177;28;20211;-76
2023/02/04 00:52:35;;;;;;;1.37;0.77;;;3.50;99.90;;;;;;5007396;28;20183;-77
2023/02/04 00:55:01;;;;;;;1.17;0.90;;;3.50;99.90;;;;;;5007294;28;20217;-77
2023/02/04 00:57:26;;;;;;;2.10;1.10;;;3.50;99.90;;;;;;5006315;28;20199;-77
2023/02/04 00:59:52;;;;;;;1.20;1.10;;;3.50;99.90;;;;;;5005234;28;20203;-77
2023/02/04 01:02:17;;;;;;;1.70;1.03;;;3.40;99.90;;;;;;5007186;28;20222;-77
2023/02/04 01:04:43;;;;;;;1.13;0.83;;;3.50;99.90;;;;;;5007082;28;20176;-78
2023/02/04 01:07:08;;;;;;;1.43;0.93;;;3.40;99.90;;;;;;5006977;28;20205;-76
2023/02/04 01:09:34;;;;;;;2.63;1.10;;;3.40;99.90;;;;;;5005372;28;20693;-77
2023/02/04 01:12:00;;;;;;;0.93;0.70;;;3.40;99.90;;;;;;5006494;28;20184;-77
2023/02/04 01:14:25;;;;;;;0.93;0.87;;;3.40;99.90;;;;;;5005619;28;20190;-78
2023/02/04 01:16:51;;;;;;;1.13;0.70;;;3.40;99.90;;;;;;5006635;28;20187;-77
2023/02/04 01:19:17;;;;;;;2.23;0.73;;;3.40;94.60;;;;;;5004578;28;20269;-78
2023/02/04 01:21:43;;;;;;;1.47;0.83;;;3.40;99.90;;;;;;5005189;28;20265;-77
2023/02/04 01:24:08;;;;;;;2.47;0.97;;;3.30;94.40;;;;;;5005797;28;20188;-78
2023/02/04 01:26:34;;;;;;;1.37;0.70;;;3.20;92.70;;;;;;5006469;28;20230;-77
2023/02/04 01:28:59;;;;;;;1.07;0.77;;;3.20;69.80;;;;;;5006098;28;20235;-77
2023/02/04 01:31:25;;;;;;;1.40;0.90;;;3.20;78.30;;;;;;5006255;28;20195;-77
2023/02/04 01:33:51;;;;;;;1.40;0.90;;;3.20;83.10;;;;;;5006308;28;21193;-77
2023/02/04 01:36:20;;;;;;;1.27;0.70;;;3.10;87.30;;;;;;5004870;28;20187;-77
2023/02/04 01:38:46;;;;;;;2.13;1.17;;;3.10;81.80;;;;;;5006229;28;20206;-77
2023/02/04 01:41:12;;;;;;;1.10;0.93;;;3.10;78.00;;;;;;5006125;28;21077;-76
2023/02/04 01:43:38;;;;;;;1.27;1.07;;;4.30;68.70;;;;;;5006948;28;20188;-77
2023/02/04 01:46:03;;;;;;;2.40;1.10;;;3.10;78.10;;;;;;5005571;28;20188;-77
2023/02/04 01:48:29;;;;;;;1.13;0.90;;;3.10;75.00;;;;;;5005757;28;20242;-77
2023/02/04 01:51:09;;;;;;;1.27;0.77;;;3.20;87.70;;;;;;5005323;28;20179;-77
2023/02/04 01:53:36;;;;;;;0.80;0.80;;;3.20;81.40;;;;;;5005582;28;20229;-76
2023/02/04 01:56:16;;;;;;;0.87;0.70;;;3.20;57.00;;;;;;5008480;28;20184;-76
2023/02/04 01:58:42;;;;;;;3.23;1.10;;;3.20;59.80;;;;;;5006737;28;20293;-76
2023/02/04 02:01:35;;;;;;;2.83;1.20;;;3.90;77.60;;;;;;5009075;28;20297;-77
2023/02/04 02:04:00;;;;;;;2.47;0.80;;;3.20;60.80;;;;;;5007679;28;20186;-77
2023/02/04 02:06:27;;;;;;;2.83;1.20;;;3.30;56.30;;;;;;5008774;28;20187;-77
2023/02/04 02:08:53;;;;;;;2.27;0.80;;;3.10;75.60;;;;;;5008515;28;20219;-77
2023/02/04 02:11:18;;;;;;;1.20;0.70;;;3.00;66.90;;;;;;5008382;28;20304;-77
2023/02/04 02:13:44;;;;;;;1.20;1.00;;;3.00;62.70;;;;;;5008527;28;20190;-76
2023/02/04 02:16:09;;;;;;;1.37;0.83;;;3.00;68.00;;;;;;5008166;28;20195;-77
2023/02/04 02:18:35;;;;;;;1.10;0.80;;;2.90;68.80;;;;;;5007351;28;20771;-78
2023/02/04 02:21:07;;;;;;;1.50;1.10;;;2.90;85.60;;;;;;5008760;28;20204;-77
2023/02/04 02:23:54;;;;;;;2.00;1.00;;;3.00;64.20;;;;;;5008082;28;20198;-76
2023/02/04 02:26:20;;;;;;;1.77;0.90;;;2.90;60.60;;;;;;5007368;28;20191;-77
2023/02/04 02:28:46;;;;;;;1.90;1.17;;;2.90;73.20;;;;;;5006654;28;20212;-77
2023/02/04 02:31:14;;;;;;;1.97;1.30;;;2.80;91.30;;;;;;5007960;28;20649;-77
2023/02/04 02:33:40;;;;;;;1.20;1.10;;;2.70;92.70;;;;;;5008095;28;20206;-76
2023/02/04 02:36:06;;;;;;;1.57;0.83;;;2.60;98.80;;;;;;5007612;28;20261;-77
2023/02/04 02:38:31;;;;;;;2.80;1.40;;;2.60;99.90;;;;;;5007398;28;21459;-75
2023/02/04 02:40:57;;;;;;;1.10;1.10;;;2.50;99.90;;;;;;5007614;28;20179;-77
2023/02/04 02:43:25;;;;;;;1.77;1.23;;;2.50;99.90;;;;;;5006725;28;20184;-76
2023/02/04 02:45:52;;;;;;;3.47;1.27;;;2.50;99.90;;;;;;5008107;28;20218;-77
2023/02/04 02:48:18;;;;;;;2.03;1.20;;;2.40;99.90;;;;;;5007345;28;20533;-77
2023/02/04 02:50:44;;;;;;;1.57;1.13;;;2.40;99.90;;;;;;5007522;28;20263;-76
2023/02/04 02:53:15;;;;;;;2.17;1.00;;;2.30;99.90;;;;;;5007456;28;20179;-77
2023/02/04 02:55:42;;;;;;;2.23;1.23;;;2.30;99.90;;;;;;5007119;28;20175;-77
2023/02/04 02:58:15;;;;;;;1.43;1.20;;;2.40;99.90;;;;;;5006886;28;20183;-77
2023/02/04 03:00:41;;;;;;;2.93;1.27;;;2.40;99.90;;;;;;5007232;28;20214;-77
2023/02/04 03:03:26;;;;;;;1.93;1.20;;;2.30;99.90;;;;;;5006847;28;20206;-77
2023/02/04 03:05:56;;;;;;;2.50;1.50;;;2.20;99.90;;;;;;5005618;28;20724;-77
2023/02/04 03:08:22;;;;;;;1.93;1.43;;;2.20;99.90;;;;;;5005514;28;20183;-77
2023/02/04 03:10:48;;;;;;;2.33;1.30;;;2.20;99.90;;;;;;5006629;28;20349;-77
2023/02/04 03:13:15;;;;;;;2.63;1.40;;;2.10;1.00;;;;;;5008413;28;21044;-77
2023/02/04 03:15:43;;;;;;;1.70;1.40;;;2.10;99.90;;;;;;5008601;28;20187;-76
2023/02/04 03:18:10;;;;;;;2.13;1.37;;;2.10;1.00;;;;;;5008186;28;20722;-77
2023/02/04 03:20:36;;;;;;;2.63;1.80;;;2.10;1.00;;;;;;5008207;28;20241;-77
2023/02/04 03:23:01;;;;;;;3.47;2.17;;;-0.10;1.00;;;;;;5008587;28;20290;-77
2023/02/04 03:25:27;;;;;;;4.10;2.50;;;1.90;1.00;;;;;;5008260;28;20619;-77
2023/02/04 03:27:55;;;;;;;3.50;2.30;;;1.90;1.00;;;;;;5008206;28;20187;-76
2023/02/04 03:30:21;;;;;;;3.50;2.40;;;1.80;1.00;;;;;;5007150;28;20235;-77
2023/02/04 03:32:47;;;;;;;5.73;2.90;;;1.70;1.00;;;;;;5007650;28;20237;-76
2023/02/04 03:35:13;;;;;;;3.30;2.40;;;1.60;1.00;;;;;;5008035;28;20179;-77
2023/02/04 03:37:39;;;;;;;2.90;2.23;;;1.60;1.00;;;;;;5008204;28;20184;-77
2023/02/04 03:40:05;;;;;;;3.87;2.80;;;1.50;1.00;;;;;;5007763;28;20199;-77
2023/02/04 03:42:30;;;;;;;4.63;2.67;;;1.50;1.00;;;;;;5008298;28;20250;-77
2023/02/04 03:44:56;;;;;;;4.17;2.73;;;1.50;1.00;;;;;;5007642;28;20188;-77
2023/02/04 03:47:21;;;;;;;4.13;2.90;;;1.40;1.00;;;;;;5006473;28;20183;-77
2023/02/04 03:49:47;;;;;;;3.83;2.60;;;1.50;1.00;;;;;;5007869;28;20646;-77
2023/02/04 03:52:12;;;;;;;3.67;2.23;;;1.50;1.00;;;;;;5007750;28;20294;-77
2023/02/04 03:54:38;;;;;;;2.13;1.93;;;1.50;1.00;;;;;;5006145;28;20237;-76
2023/02/04 03:57:03;;;;;;;3.67;2.23;;;1.40;1.00;;;;;;5008010;28;20196;-77
2023/02/04 03:59:29;;;;;;;3.47;2.57;;;1.40;15.70;;;;;;5007159;28;20218;-78
2023/02/04 04:01:54;;;;;;;3.07;2.50;;;1.50;48.90;;;;;;5008063;28;20211;-77
2023/02/04 04:04:20;;;;;;;2.90;2.57;;;1.60;99.90;;;;;;5006135;28;20191;-77
2023/02/04 04:06:45;;;;;;;2.83;2.60;;;1.60;99.90;;;;;;5007317;28;20210;-77
2023/02/04 04:09:11;;;;;;;4.23;2.37;;;1.50;11.10;;;;;;5005380;28;20203;-78
2023/02/04 04:11:37;;;;;;;4.07;2.90;;;1.60;99.90;;;;;;5007690;28;20222;-77
2023/02/04 04:14:02;;;;;;;3.47;2.40;;;0.80;99.90;;;;;;5007122;28;20179;-77
2023/02/04 04:16:28;;;;;;;2.87;2.10;;;1.60;99.90;;;;;;5006284;28;20207;-77
2023/02/04 04:18:54;;;;;;;2.30;2.10;;;1.60;99.90;;;;;;5006669;28;21142;-77
2023/02/04 04:21:20;;;;;;;3.13;1.70;;;1.50;99.90;;;;;;5005242;28;20207;-77
2023/02/04 04:23:46;;;;;;;1.97;1.80;;;1.50;81.00;;;;;;5005991;28;20550;-77
2023/02/04 04:26:11;;;;;;;2.40;2.10;;;1.50;90.60;;;;;;5006501;28;20184;-76
2023/02/04 04:28:37;;;;;;;3.20;1.90;;;1.50;99.90;;;;;;5006698;28;20179;-77
2023/02/04 04:31:02;;;;;;;2.30;2.10;;;1.50;99.90;;;;;;5006877;28;20696;-77
2023/02/04 04:33:28;;;;;;;3.43;2.03;;;1.50;99.90;;;;;;5006372;28;20191;-77
2023/02/04 04:35:53;;;;;;;2.43;1.63;;;1.50;99.90;;;;;;5006705;28;20237;-77
2023/02/04 04:38:19;;;;;;;2.37;1.87;;;1.50;99.90;;;;;;5006310;28;20187;-76
2023/02/04 04:40:45;;;;;;;3.47;1.93;;;1.40;99.90;;;;;;5004625;28;20191;-77
2023/02/04 04:43:10;;;;;;;2.07;1.70;;;1.50;99.90;;;;;;5006343;28;20203;-78
2023/02/04 04:45:36;;;;;;;2.50;1.77;;;1.40;99.90;;;;;;5005180;28;20650;-77
2023/02/04 04:48:02;;;;;;;2.33;2.00;;;1.40;99.90;;;;;;5006313;28;20176;-77
2023/02/04 04:50:27;;;;;;;3.17;2.20;;;1.40;99.90;;;;;;5005960;28;20246;-77
2023/02/04 04:52:53;;;;;;;3.30;1.87;;;1.20;92.90;;;;;;5006454;28;20294;-77
2023/02/04 04:55:18;;;;;;;3.00;2.60;;;1.10;71.00;;;;;;5003147;28;20430;-77
2023/02/04 04:57:44;;;;;;;3.13;2.17;;;1.20;99.90;;;;;;5004864;28;20661;-76
2023/02/04 05:00:15;;;;;;;2.80;2.13;;;1.30;99.90;;;;;;5005832;28;20673;-77
2023/02/04 05:02:40;;;;;;;4.53;2.30;;;1.40;99.90;;;;;;5005985;28;20231;-77
2023/02/04 05:05:06;;;;;;;3.70;2.13;;;1.30;99.90;;;;;;5006197;28;20215;-77
2023/02/04 05:07:32;;;;;;;5.43;2.17;;;1.30;99.90;;;;;;5006276;28;20187;-77
2023/02/04 05:09:57;;;;;;;3.17;2.30;;;1.30;99.90;;;;;;5005591;28;20261;-77
2023/02/04 05:12:23;;;;;;;1.83;1.67;;;1.30;68.40;;;;;;5005770;28;20654;-77
2023/02/04 05:14:48;;;;;;;3.33;1.97;;;1.30;99.90;;;;;;5005007;28;20550;-77
2023/02/04 05:17:14;;;;;;;2.50;1.70;;;1.50;99.90;;;;;;5005773;28;20549;-77
2023/02/04 05:19:39;;;;;;;3.90;2.00;;;1.70;99.90;;;;;;5005896;28;20617;-77
2023/02/04 05:22:05;;;;;;;3.00;2.10;;;1.80;99.90;;;;;;5005201;28;20268;-77
2023/02/04 05:24:30;;;;;;;4.97;3.57;;;1.80;99.90;;;;;;5005485;28;20222;-77
2023/02/04 05:26:56;;;;;;;3.60;2.60;;;1.60;1.00;;;;;;5005905;28;20186;-77
2023/02/04 05:29:21;;;;;;;3.73;2.40;;;1.60;1.00;;;;;;5007334;28;20211;-77
2023/02/04 05:31:47;;;;;;;2.20;2.00;;;1.40;1.00;;;;;;5008242;28;20183;-77
2023/02/04 05:34:13;;;;;;;2.80;2.10;;;1.40;1.00;;;;;;5008476;28;20270;-77
2023/02/04 05:36:38;;;;;;;3.23;2.10;;;1.40;9.70;;;;;;5008918;28;20195;-76
2023/02/04 05:39:04;;;;;;;3.97;2.20;;;1.40;70.00;;;;;;5008895;28;20258;-77
2023/02/04 05:41:29;;;;;;;6.33;2.37;;;1.50;99.90;;;;;;5008493;28;21136;-78
2023/02/04 05:43:55;;;;;;;2.37;1.67;;;1.50;99.90;;;;;;5009266;28;20657;-77
2023/02/04 05:46:20;;;;;;;3.37;1.90;;;1.60;99.90;;;;;;5008557;28;20676;-76
2023/02/04 05:48:46;;;;;;;4.30;2.17;;;1.70;1.00;;;;;;5008918;28;20227;-77
2023/02/04 05:51:11;;;;;;;4.17;2.07;;;1.70;1.00;;;;;;5008550;28;20211;-76
2023/02/04 05:53:37;;;;;;;2.20;1.80;;;1.80;1.00;;;;;;5008776;28;20195;-77
2023/02/04 05:56:03;;;;;;;4.37;2.57;;;1.90;10.10;;;;;;5008689;28;20195;-77
2023/02/04 05:58:32;;;;;;;4.33;2.73;;;2.00;7.40;;;;;;5008052;28;20192;-76
2023/02/04 06:01:01;;;;;;;3.77;2.80;;;2.00;1.00;;;;;;5007451;28;20182;-77
2023/02/04 06:03:28;;;;;;;4.13;3.10;;;2.10;1.00;;;;;;5006749;28;20564;-77
2023/02/04 06:05:53;;;;;;;6.13;3.00;;;2.00;1.00;;;;;;5007728;28;20318;-77
2023/02/04 06:08:19;;;;;;;3.87;2.60;;;1.90;1.00;;;;;;5006434;28;20255;-76
2023/02/04 06:10:45;;;;;;;6.73;2.90;;;1.70;1.00;;;;;;5007767;28;20701;-77
2023/02/04 06:13:10;;;;;;;6.53;3.63;;;1.70;1.00;;;;;;5006731;28;20188;-76
2023/02/04 06:15:36;;;;;;;3.13;2.77;;;1.80;1.00;;;;;;5007614;28;20183;-77
2023/02/04 06:18:01;;;;;;;4.17;3.23;;;1.90;1.00;;;;;;5007590;28;21182;-77
2023/02/04 06:20:27;;;;;;;3.00;2.43;;;1.80;1.00;;;;;;5007090;28;20212;-76
2023/02/04 06:22:53;;;;;;;3.93;2.73;;;1.80;1.00;;;;;;5007444;28;20203;-76
2023/02/04 06:25:22;;;;;;;4.83;2.93;;;1.70;1.00;;;;;;5009309;28;20192;-77
2023/02/04 06:27:48;;;;;;;3.70;3.10;;;1.50;1.00;;;;;;5009587;28;20191;-77
2023/02/04 06:30:14;;;;;;;3.43;2.60;;;1.50;1.00;;;;;;5009689;28;20218;-76
2023/02/04 06:32:40;;;;;;;3.37;2.77;;;1.50;1.00;;;;;;5009859;28;20211;-77
2023/02/04 06:35:06;;;;;;;4.67;2.53;;;1.40;1.00;;;;;;5007636;28;20701;-77
2023/02/04 06:37:31;;;;;;;3.30;2.57;;;1.50;1.00;;;;;;5008968;28;20184;-77
2023/02/04 06:39:57;;;;;;;4.20;2.80;;;1.40;1.00;;;;;;5008885;28;20203;-77
2023/02/04 06:42:26;;;;;;;4.03;2.80;;;1.50;1.00;;;;;;5008708;28;20711;-77
2023/02/04 06:44:52;;;;;;;4.07;3.13;;;1.30;1.00;;;;;;5008069;28;20190;-77
2023/02/04 06:47:17;;;;;;;4.23;2.87;;;1.20;1.00;;;;;;5008868;28;20192;-77
2023/02/04 06:49:43;;;;;;;3.10;2.80;;;1.00;1.00;;;;;;5009137;28;20203;-77
2023/02/04 06:52:09;;;;;;;4.83;2.73;;;0.90;1.00;;;;;;5008624;28;20226;-77
2023/02/04 06:54:34;;;;;;;4.00;3.23;;;0.80;1.00;;;;;;5008911;28;20194;-77
2023/02/04 06:57:05;;;;;;;4.77;2.37;;;0.70;1.00;;;;;;5008954;28;20192;-77
2023/02/04 06:59:35;;;;;;;4.93;3.77;;;0.60;1.00;;;;;;5008115;28;20322;-77
2023/02/04 07:02:02;;;;;;;4.10;3.30;;;0.60;4.90;;;;;;5008849;28;20738;-77
2023/02/04 07:04:28;;;;;;;4.40;3.00;;;0.60;24.90;;;;;;5008488;28;21191;-77
2023/02/04 07:06:53;;;;;;;3.60;2.97;;;0.60;80.80;;;;;;5007266;28;20183;-76
2023/02/04 07:09:19;;;;;;;3.63;3.20;;;0.60;77.90;;;;;;5008132;28;20235;-77
2023/02/04 07:11:44;;;;;;;4.23;3.83;;;0.70;99.90;;;;;;5008458;28;20210;-77
2023/02/04 07:14:10;;;;;;;6.00;3.23;;;0.50;99.90;;;;;;5007871;28;20206;-77
2023/02/04 07:16:36;;;;;;;4.20;3.80;;;0.70;99.90;;;;;;5006498;28;20190;-77
2023/02/04 07:19:02;;;;;;;3.53;3.20;;;0.60;99.90;;;;;;5007753;28;20292;-76
2023/02/04 07:21:28;;;;;;;4.37;3.40;;;0.70;99.90;;;;;;5007956;28;20230;-77
2023/02/04 07:23:53;;;;;;;7.67;4.50;;;0.80;99.90;;;;;;5008343;28;20191;-77
2023/02/04 07:26:19;;;;;;;3.90;3.30;;;0.80;99.90;;;;;;5007182;28;20595;-76
2023/02/04 07:28:44;;;;;;;3.73;3.43;;;0.80;99.90;;;;;;5007170;28;20208;-77
2023/02/04 07:31:10;;;;;;;3.87;3.47;;;0.90;99.90;;;;;;5007188;28;20184;-77
2023/02/04 07:33:36;;;;;;;4.80;4.13;;;0.90;99.90;;;;;;5006441;28;20684;-77
2023/02/04 07:36:01;;;;;;;6.00;4.07;;;0.80;99.90;;;;;;5007865;28;20330;-77
2023/02/04 07:38:27;;;;;;;6.17;3.90;;;0.80;99.90;;;;;;5007108;28;20192;-77
2023/02/04 07:40:53;;;;;;;4.73;3.87;;;0.90;99.90;;;;;;5007162;28;20697;-77
2023/02/04 07:43:18;;;;;;;4.77;3.57;;;1.00;1.00;;;;;;5007151;28;20211;-77
2023/02/04 07:45:44;;;;;;;5.07;3.70;;;1.00;99.90;;;;;;5005019;28;20840;-77
2023/02/04 07:48:10;;;;;;;5.47;3.90;;;0.90;99.90;;;;;;5006915;28;20317;-77
2023/02/04 07:50:36;;;;;;;5.40;4.10;;;1.00;99.90;;;;;;5007235;28;20218;-77
2023/02/04 07:53:02;;;;;;;4.70;4.17;;;1.00;1.00;;;;;;5006929;28;20346;-77
2023/02/04 07:55:28;;;;;;;6.27;4.20;;;2.40;1.00;;;;;;5005288;28;20183;-77
2023/02/04 07:57:54;;;;;;;4.27;3.83;;;1.20;1.00;;;;;;5006584;28;20254;-77
2023/02/04 08:00:20;;;;;;;5.63;4.00;;;1.40;1.00;;;;;;5002789;28;20211;-76
2023/02/04 08:02:45;;;;;;;3.63;3.33;;;1.60;1.00;;;;;;5005505;28;20562;-77
2023/02/04 08:05:11;;;;;;;4.00;3.60;;;1.40;99.90;;;;;;5004735;28;20231;-77
2023/02/04 08:07:37;;;;;;;4.27;3.63;;;1.40;99.90;;;;;;5006045;28;20183;-77
2023/02/04 08:10:04;;;;;;;6.03;4.60;;;1.50;99.90;;;;;;5005962;28;20219;-77
2023/02/04 08:12:30;;;;;;;5.57;3.90;;;1.70;99.90;;;;;;5006254;28;20219;-77
2023/02/04 08:14:55;;;;;;;5.67;4.03;;;1.60;99.90;;;;;;5005818;28;20291;-77
2023/02/04 08:17:21;;;;;;;4.27;3.50;;;1.60;1.00;;;;;;5006456;28;20269;-77
2023/02/04 08:19:46;;;;;;;4.53;3.10;;;1.60;1.00;;;;;;5005615;28;20253;-77
2023/02/04 08:22:12;;;;;;;4.53;3.60;;;1.60;1.00;;;;;;5005461;28;20203;-76
2023/02/04 08:24:37;;;;;;;4.10;3.33;;;1.80;1.00;;;;;;5006545;28;20662;-77
2023/02/04 08:27:03;;;;;;;5.27;3.23;;;1.80;1.00;;;;;;5005626;28;20188;-77
2023/02/04 08:29:29;;;;;;;3.70;3.03;;;1.80;1.00;;;;;;5005724;28;20214;-77
2023/02/04 08:31:54;;;;;;;5.63;3.50;;;1.80;1.00;;;;;;5006174;28;20183;-76
2023/02/04 08:34:20;;;;;;;5.43;3.13;;;1.80;1.00;;;;;;5006527;28;20206;-77
2023/02/04 08:36:46;;;;;;;4.77;3.23;;;1.90;1.00;;;;;;5005808;28;20203;-77
2023/02/04 08:39:11;;;;;;;6.17;3.70;;;1.90;1.00;;;;;;5004708;28;20203;-75
2023/02/04 08:41:38;;;;;;;4.20;3.37;;;1.90;1.00;;;;;;5002991;28;20265;-76
2023/02/04 08:44:03;;;;;;;3.73;3.30;;;1.80;1.00;;;;;;5001561;28;20220;-75
2023/02/04 08:46:29;;;;;;;4.37;3.43;;;1.60;1.00;;;;;;5002992;28;20263;-75
2023/02/04 08:48:55;;;;;;;4.07;3.00;;;1.50;1.00;;;;;;5002834;28;20279;-76
2023/02/04 08:51:20;;;;;;;4.30;2.93;;;1.50;1.00;;;;;;5002865;28;20184;-76
2023/02/04 08:53:55;;;;;;;4.20;3.00;;;1.30;1.00;;;;;;5003078;28;20218;-89
2023/02/04 08:56:22;;;;;;;4.67;3.23;;;0.90;1.00;;;;;;5021079;28;20657;-86
2023/02/04 08:58:51;;;;;;;9.37;4.67;;;2.20;1.00;;;;;;5021268;28;20574;-86
2023/02/04 09:01:18;;;;;;;7.17;4.93;;;1.00;34.10;;;;;;4987268;28;20191;-85
2023/02/04 09:03:43;;;;;;;8.90;6.07;;;1.10;99.90;;;;;;5006991;28;20181;-86
2023/02/04 09:06:09;;;;;;;6.77;4.60;;;1.10;1.00;;;;;;5010041;28;20183;-85
2023/02/04 09:08:35;;;;;;;6.43;5.30;;;0.90;99.90;;;;;;5008369;28;20287;-85
2023/02/04 09:14:51;;;;;;;9.10;5.70;;;0.80;1.00;;;;;;5008177;28;20180;-85
2023/02/04 09:28:31;;;;;;;;;;;;;;;;;;;;;
2023/02/04 09:31:20;;;;;;;7.67;4.00;;;3.10;1.00;;;;;;4878056;29;20207;-87
2023/02/04 09:34:24;;;;;;;5.90;3.70;;;4.30;1.00;;;;;;4902592;29;20196;-84
2023/02/04 09:36:49;;;;;;;5.00;3.13;;;-0.30;99.90;;;;;;4893978;29;20199;-88
2023/02/04 09:46:07;;;;;;;3.77;2.80;;;4.60;1.00;;;;;;4908448;29;20277;-85
2023/02/04 09:49:50;;;;;;;;;;;;;;;;;;;;;
2023/02/04 09:55:30;;;;;;;5.80;3.37;;;2.50;99.90;;;;;;4981274;28;20200;-84
2023/02/04 09:57:56;;;;;;;23.60;12.70;;;;;;;;;;4986050;28;20637;-84
2023/02/04 10:00:25;;;;;;;8.70;4.60;;;2.50;99.90;;;;;;4986855;28;20216;-84
2023/02/04 10:02:51;;;;;;;14.37;8.40;;;;;;;;;;4984273;28;20262;-84
2023/02/04 10:05:31;;;;;;;4.43;2.80;;;2.50;99.90;;;;;;5009105;28;20223;-85
2023/02/04 10:08:00;;;;;;;13.17;6.53;;;2.50;99.90;;;;;;5023956;28;20192;-86
2023/02/04 10:10:27;;;;;;;6.67;3.77;;;2.60;99.90;;;;;;5024802;28;20231;-86
2023/02/04 10:12:56;;;;;;;5.20;3.63;;;2.20;99.90;;;;;;5008465;28;20269;-86
2023/02/04 10:15:22;;;;;;;5.37;2.13;;;2.30;1.00;;;;;;5006831;28;20188;-87
2023/02/04 10:17:50;;;;;;;2.57;2.27;;;2.50;1.00;;;;;;5006638;28;20175;-85
2023/02/04 10:20:18;;;;;;;2.70;2.00;;;2.70;1.00;;;;;;5006589;28;20211;-83
2023/02/04 10:22:48;;;;;;;9.53;2.77;;;2.60;1.00;;;;;;5006122;28;20302;-85
2023/02/04 10:25:16;;;;;;;5.67;2.70;;;2.70;1.00;;;;;;5006615;28;20657;-85
2023/02/04 10:27:54;;;;;;;2.80;2.27;;;2.90;1.00;;;;;;5006527;28;20191;-85
2023/02/04 10:30:42;;;;;;;5.07;3.17;;;3.00;1.00;;;;;;5006774;28;20222;-85
2023/02/04 10:33:21;;;;;;;3.13;2.50;;;3.00;1.00;;;;;;5008047;28;20223;-85
2023/02/04 10:35:49;;;;;;;4.10;2.43;;;3.20;1.00;;;;;;5008220;28;20179;-85
2023/02/04 10:38:15;;;;;;;3.00;1.50;;;3.10;1.00;;;;;;5006008;28;20211;-85
2023/02/04 10:40:41;;;;;;;2.47;1.87;;;3.20;1.00;;;;;;5007107;28;20247;-85
2023/02/04 10:43:20;;;;;;;7.83;2.50;;;3.20;1.00;;;;;;5006099;28;20689;-84
2023/02/04 10:46:02;;;;;;;2.47;1.67;;;3.50;1.00;;;;;;5008214;28;20190;-85
2023/02/04 10:48:29;;;;;;;9.00;2.30;;;3.40;1.00;;;;;;5007236;28;20179;-84
2023/02/04 10:50:56;;;;;;;13.47;3.50;;;3.00;1.00;;;;;;5007968;28;20239;-86
2023/02/04 10:56:16;;;;;;;23.10;8.83;;;3.60;1.00;;;;;;5006253;28;20334;-86
2023/02/04 10:58:43;;;;;;;14.27;6.17;;;3.40;1.00;;;;;;5006802;28;20219;-85
2023/02/04 11:01:10;;;;;;;3.30;1.77;;;3.90;1.00;;;;;;5005814;28;20195;-86
2023/02/04 11:03:38;;;;;;;22.00;3.40;;;3.40;1.00;;;;;;5006065;28;20214;-84
2023/02/04 11:06:19;;;;;;;13.30;1.40;;;3.50;1.00;;;;;;5004046;28;20195;-85
2023/02/04 11:08:45;;;;;;;23.40;3.20;;;3.70;99.90;;;;;;5002838;28;20229;-85
2023/02/04 11:11:22;;;;;;;10.30;1.83;;;3.60;1.00;;;;;;5003027;28;20581;-86
2023/02/04 11:13:50;;;;;;;3.33;0.77;;;3.80;99.90;;;;;;5004157;28;20187;-84
2023/02/04 11:16:16;;;;;;;1.03;0.70;;;3.80;1.00;;;;;;5004039;28;20286;-85
2023/02/04 11:18:49;;;;;;;1.57;0.70;;;3.70;1.00;;;;;;5004050;28;20303;-84
2023/02/04 11:21:27;;;;;;;1.00;0.67;;;3.80;99.90;;;;;;5021086;28;20172;-84
2023/02/04 11:24:21;;;;;;;2.47;0.90;;;3.90;99.90;;;;;;5008318;28;20194;-85
2023/02/04 11:27:06;;;;;;;2.00;0.80;;;5.10;99.90;;;;;;5007102;28;20198;-84
2023/02/04 11:29:37;;;;;;;1.43;0.80;;;4.10;99.90;;;;;;5007226;28;20591;-84
2023/02/04 11:32:05;;;;;;;1.90;1.10;;;4.10;99.90;;;;;;5007615;28;20187;-84
2023/02/04 11:34:44;;;;;;;3.63;1.30;;;4.60;99.90;;;;;;5006443;28;20206;-86
2023/02/04 11:37:18;;;;;;;4.07;2.07;;;4.40;99.90;;;;;;5003643;28;20431;-84
2023/02/04 11:39:48;;;;;;;1.33;1.00;;;4.50;99.90;;;;;;5003723;28;20294;-84
2023/02/04 11:42:41;;;;;;;4.03;1.90;;;4.80;99.90;;;;;;5003701;28;20306;-84
2023/02/04 11:45:21;;;;;;;3.23;0.90;;;4.60;99.90;;;;;;5003274;28;20986;-84
2023/02/04 11:47:56;;;;;;;2.30;0.97;;;4.80;99.90;;;;;;5074588;27;20986;-86
2023/02/04 11:50:29;;;;;;;1.80;0.77;;;7.00;99.90;;;;;;5060404;28;20202;-85
2023/02/04 11:52:56;;;;;;;1.60;0.93;;;5.00;99.90;;;;;;5061360;28;20188;-85
2023/02/04 11:55:22;;;;;;;2.97;1.10;;;4.70;99.90;;;;;;5064780;28;20178;-85
2023/02/04 11:57:53;;;;;;;1.47;0.90;;;4.60;99.90;;;;;;5061364;28;20255;-85
2023/02/04 12:00:25;;;;;;;2.77;1.13;;;4.60;99.90;;;;;;5060940;28;20219;-86
2023/02/04 12:03:06;;;;;;;1.73;0.80;;;4.80;99.90;;;;;;5061951;28;20467;-85
2023/02/04 12:05:48;;;;;;;1.60;0.80;;;5.00;99.90;;;;;;5063357;28;20577;-85
2023/02/04 12:08:33;;;;;;;1.20;0.70;;;4.70;99.90;;;;;;5064459;28;20209;-85
2023/02/04 12:10:59;;;;;;;1.60;0.60;;;4.60;99.90;;;;;;5065083;28;20595;-86
2023/02/04 12:13:25;;;;;;;1.97;0.90;;;4.40;99.90;;;;;;5065195;28;20327;-85
2023/02/04 12:16:02;;;;;;;1.07;0.60;;;4.60;99.90;;;;;;5065492;28;20212;-85
2023/02/04 12:18:29;;;;;;;1.23;0.67;;;4.60;99.90;;;;;;5066863;28;20541;-85
2023/02/04 12:20:56;;;;;;;2.17;1.37;;;4.30;99.90;;;;;;5066050;28;21001;-85
2023/02/04 12:23:23;;;;;;;1.33;0.70;;;5.90;1.00;;;;;;5068745;28;20189;-86
2023/02/04 12:25:49;;;;;;;1.00;0.50;;;4.50;1.00;;;;;;5066700;28;20251;-86
2023/02/04 12:28:14;;;;;;;1.93;1.00;;;4.30;1.00;;;;;;5066498;28;20178;-86
2023/02/04 12:30:40;;;;;;;2.40;0.87;;;4.50;1.00;;;;;;5069289;28;20253;-85
2023/02/04 12:33:06;;;;;;;2.23;0.87;;;4.60;1.00;;;;;;5067121;28;20964;-86
2023/02/04 12:35:32;;;;;;;2.23;0.90;;;4.50;1.00;;;;;;5067626;28;20219;-85
2023/02/04 12:37:57;;;;;;;1.30;0.57;;;4.40;99.90;;;;;;5068089;28;20182;-85
2023/02/04 12:40:23;;;;;;;1.20;0.73;;;4.50;1.00;;;;;;5069148;28;20905;-86
2023/02/04 12:42:49;;;;;;;1.47;0.70;;;4.50;1.00;;;;;;5070803;28;20296;-86
2023/02/04 12:45:15;;;;;;;2.93;0.90;;;4.40;1.00;;;;;;5067004;28;20759;-85
2023/02/04 12:47:41;;;;;;;1.53;0.70;;;4.30;1.00;;;;;;5058080;28;20209;-84
2023/02/04 12:50:09;;;;;;;1.43;0.77;;;4.30;1.00;;;;;;5057988;28;20214;-85
2023/02/04 12:52:35;;;;;;;2.23;0.90;;;4.10;99.90;;;;;;5058338;28;20967;-85
2023/02/04 12:55:03;;;;;;;1.03;0.80;;;;;;;;;;5057851;28;20271;-84
2023/02/04 12:57:29;;;;;;;2.07;0.80;;;;;;;;;;5054618;28;20197;-85
2023/02/04 12:59:58;;;;;;;1.90;0.80;;;;;;;;;;5045173;28;20217;-85
2023/02/04 13:02:24;;;;;;;4.73;1.00;;;;;;;;;;5046454;28;20596;-85
2023/02/04 13:04:50;;;;;;;2.90;1.03;;;;;;;;;;5044038;28;20224;-85
2023/02/04 13:07:16;;;;;;;1.47;0.67;;;;;;;;;;5048068;28;20242;-84
2023/02/04 13:09:44;;;;;;;1.97;0.90;;;;;;;;;;5045079;28;20230;-84
2023/02/04 13:12:12;;;;;;;1.17;0.80;;;;;;;;;;5046363;28;20718;-85
2023/02/04 13:14:38;;;;;;;1.47;1.10;;;;;;;;;;5047844;28;20182;-84
2023/02/04 13:17:05;;;;;;;2.20;1.33;;;4.10;1.00;;;;;;5045905;28;20224;-84
2023/02/04 13:19:31;;;;;;;3.33;1.53;;;;;;;;;;5045516;28;20218;-84
2023/02/04 13:21:57;;;;;;;1.73;1.30;;;;;;;;;;5047685;28;20222;-85
2023/02/04 13:24:23;;;;;;;2.43;1.40;;;;;;;;;;5044881;28;20182;-85
2023/02/04 13:26:49;;;;;;;2.47;2.10;;;;;;;;;;5045347;28;20241;-84
2023/02/04 13:29:15;;;;;;;3.83;2.77;;;;;;;;;;5045872;28;20236;-84
2023/02/04 13:31:41;;;;;;;3.10;2.00;;;;;;;;;;5042534;28;20652;-85
2023/02/04 13:34:07;;;;;;;3.43;1.60;;;;;;;;;;5045158;28;20243;-85
2023/02/04 13:36:33;;;;;;;2.63;1.60;;;;;;;;;;5044907;28;20183;-83
2023/02/04 13:38:59;;;;;;;2.93;1.53;;;;;;;;;;5045675;28;20825;-84